sensor_id;sensor_type;location;lat;lon;timestamp;P1;durP1;ratioP1;P2;durP2;ratioP2
29984;SDS011;17387;42.690;23.328;2022-09-30T00:01:13;39.88;;;23.67;;
29984;SDS011;17387;42.690;23.328;2022-09-30T00:03:39;36.47;;;23.45;;
29984;SDS011;17387;42.690;23.328;2022-09-30T00:06:05;36.67;;;23.30;;
29984;SDS011;17387;42.690;23.328;2022-09-30T00:08:31;38.58;;;22.95;;
29984;SDS011;17387;42.690;23.328;2022-09-30T00:11:00;36.58;;;23.40;;
29984;SDS011;17387;42.690;23.328;2022-09-30T00:13:28;36.38;;;23.73;;
29984;SDS011;17387;42.690;23.328;2022-09-30T00:15:55;34.63;;;21.95;;
29984;SDS011;17387;42.690;23.328;2022-09-30T00:18:21;39.72;;;23.85;;
29984;SDS011;17387;42.690;23.328;2022-09-30T00:20:46;37.78;;;24.20;;
29984;SDS011;17387;42.690;23.328;2022-09-30T00:23:11;39.30;;;23.73;;
29984;SDS011;17387;42.690;23.328;2022-09-30T00:25:37;38.22;;;24.02;;
29984;SDS011;17387;42.690;23.328;2022-09-30T00:28:02;39.55;;;23.48;;
29984;SDS011;17387;42.690;23.328;2022-09-30T00:30:28;37.67;;;22.63;;
29984;SDS011;17387;42.690;23.328;2022-09-30T00:32:53;31.83;;;20.92;;
29984;SDS011;17387;42.690;23.328;2022-09-30T00:35:19;33.03;;;20.70;;
29984;SDS011;17387;42.690;23.328;2022-09-30T00:37:46;31.65;;;19.42;;
29984;SDS011;17387;42.690;23.328;2022-09-30T00:40:11;27.35;;;17.65;;
29984;SDS011;17387;42.690;23.328;2022-09-30T00:42:40;29.85;;;17.75;;
29984;SDS011;17387;42.690;23.328;2022-09-30T00:45:06;27.95;;;18.08;;
29984;SDS011;17387;42.690;23.328;2022-09-30T00:53:18;32.83;;;18.50;;
29984;SDS011;17387;42.690;23.328;2022-09-30T00:55:56;31.33;;;18.50;;
29984;SDS011;17387;42.690;23.328;2022-09-30T01:01:14;28.48;;;18.80;;
29984;SDS011;17387;42.690;23.328;2022-09-30T01:03:40;29.10;;;19.30;;
29984;SDS011;17387;42.690;23.328;2022-09-30T01:06:08;31.40;;;19.40;;
29984;SDS011;17387;42.690;23.328;2022-09-30T01:08:35;33.70;;;20.13;;
29984;SDS011;17387;42.690;23.328;2022-09-30T01:11:02;28.70;;;18.90;;
29984;SDS011;17387;42.690;23.328;2022-09-30T01:13:27;27.05;;;18.60;;
29984;SDS011;17387;42.690;23.328;2022-09-30T01:32:03;35.17;;;19.60;;
29984;SDS011;17387;42.690;23.328;2022-09-30T01:34:44;36.65;;;20.27;;
29984;SDS011;17387;42.690;23.328;2022-09-30T01:37:43;28.92;;;20.35;;
29984;SDS011;17387;42.690;23.328;2022-09-30T01:46:03;34.28;;;21.30;;
29984;SDS011;17387;42.690;23.328;2022-09-30T01:48:58;35.42;;;20.63;;
29984;SDS011;17387;42.690;23.328;2022-09-30T01:56:51;32.17;;;20.77;;
29984;SDS011;17387;42.690;23.328;2022-09-30T01:59:36;41.65;;;23.25;;
29984;SDS011;17387;42.690;23.328;2022-09-30T02:02:09;48.78;;;23.60;;
29984;SDS011;17387;42.690;23.328;2022-09-30T02:04:42;48.53;;;24.23;;
29984;SDS011;17387;42.690;23.328;2022-09-30T02:09:47;47.42;;;25.20;;
29984;SDS011;17387;42.690;23.328;2022-09-30T02:12:18;45.05;;;25.40;;
29984;SDS011;17387;42.690;23.328;2022-09-30T02:14:54;49.40;;;25.40;;
29984;SDS011;17387;42.690;23.328;2022-09-30T02:17:29;42.88;;;24.52;;
29984;SDS011;17387;42.690;23.328;2022-09-30T02:20:01;46.47;;;23.90;;
29984;SDS011;17387;42.690;23.328;2022-09-30T02:22:34;39.33;;;23.15;;
29984;SDS011;17387;42.690;23.328;2022-09-30T02:25:11;46.03;;;26.30;;
29984;SDS011;17387;42.690;23.328;2022-09-30T02:27:45;42.95;;;24.88;;
29984;SDS011;17387;42.690;23.328;2022-09-30T02:30:19;45.95;;;25.02;;
29984;SDS011;17387;42.690;23.328;2022-09-30T02:32:48;47.20;;;25.95;;
29984;SDS011;17387;42.690;23.328;2022-09-30T02:38:17;47.33;;;24.85;;
29984;SDS011;17387;42.690;23.328;2022-09-30T02:43:17;57.47;;;27.35;;
29984;SDS011;17387;42.690;23.328;2022-09-30T02:59:22;53.90;;;27.45;;
29984;SDS011;17387;42.690;23.328;2022-09-30T03:01:49;38.03;;;21.15;;
29984;SDS011;17387;42.690;23.328;2022-09-30T03:04:16;41.53;;;21.95;;
29984;SDS011;17387;42.690;23.328;2022-09-30T03:06:46;54.42;;;23.48;;
29984;SDS011;17387;42.690;23.328;2022-09-30T03:09:12;67.38;;;26.13;;
29984;SDS011;17387;42.690;23.328;2022-09-30T03:11:38;106.97;;;29.27;;
29984;SDS011;17387;42.690;23.328;2022-09-30T03:21:52;591.08;;;30.92;;
29984;SDS011;17387;42.690;23.328;2022-09-30T03:30:04;271.38;;;29.42;;
29984;SDS011;17387;42.690;23.328;2022-09-30T03:32:38;412.33;;;27.85;;
29984;SDS011;17387;42.690;23.328;2022-09-30T03:35:20;584.88;;;31.70;;
29984;SDS011;17387;42.690;23.328;2022-09-30T03:43:48;563.10;;;33.00;;
29984;SDS011;17387;42.690;23.328;2022-09-30T03:48:57;545.58;;;34.13;;
29984;SDS011;17387;42.690;23.328;2022-09-30T03:51:27;473.58;;;34.40;;
29984;SDS011;17387;42.690;23.328;2022-09-30T03:53:54;342.88;;;33.75;;
29984;SDS011;17387;42.690;23.328;2022-09-30T03:56:28;513.92;;;37.60;;
29984;SDS011;17387;42.690;23.328;2022-09-30T03:58:55;346.85;;;32.83;;
29984;SDS011;17387;42.690;23.328;2022-09-30T04:01:22;288.35;;;34.03;;
29984;SDS011;17387;42.690;23.328;2022-09-30T04:03:48;275.35;;;34.33;;
29984;SDS011;17387;42.690;23.328;2022-09-30T04:06:19;343.52;;;34.00;;
29984;SDS011;17387;42.690;23.328;2022-09-30T04:08:46;224.77;;;33.85;;
29984;SDS011;17387;42.690;23.328;2022-09-30T04:11:12;247.18;;;36.40;;
29984;SDS011;17387;42.690;23.328;2022-09-30T04:13:38;199.63;;;36.72;;
29984;SDS011;17387;42.690;23.328;2022-09-30T04:16:05;146.07;;;36.03;;
29984;SDS011;17387;42.690;23.328;2022-09-30T04:18:35;161.85;;;37.95;;
29984;SDS011;17387;42.690;23.328;2022-09-30T04:21:08;120.18;;;35.33;;
29984;SDS011;17387;42.690;23.328;2022-09-30T04:23:35;287.90;;;44.42;;
29984;SDS011;17387;42.690;23.328;2022-09-30T04:26:02;368.33;;;39.22;;
29984;SDS011;17387;42.690;23.328;2022-09-30T04:28:30;395.70;;;43.47;;
29984;SDS011;17387;42.690;23.328;2022-09-30T04:30:57;171.13;;;40.08;;
29984;SDS011;17387;42.690;23.328;2022-09-30T04:33:23;576.03;;;37.05;;
29984;SDS011;17387;42.690;23.328;2022-09-30T04:35:51;463.98;;;39.80;;
29984;SDS011;17387;42.690;23.328;2022-09-30T04:38:18;190.48;;;34.40;;
29984;SDS011;17387;42.690;23.328;2022-09-30T04:40:44;273.90;;;33.70;;
29984;SDS011;17387;42.690;23.328;2022-09-30T04:43:09;226.45;;;33.53;;
29984;SDS011;17387;42.690;23.328;2022-09-30T04:45:34;159.75;;;32.50;;
29984;SDS011;17387;42.690;23.328;2022-09-30T04:48:00;176.10;;;32.67;;
29984;SDS011;17387;42.690;23.328;2022-09-30T04:50:26;178.30;;;34.25;;
29984;SDS011;17387;42.690;23.328;2022-09-30T04:52:51;293.02;;;36.00;;
29984;SDS011;17387;42.690;23.328;2022-09-30T04:55:16;100.03;;;34.22;;
29984;SDS011;17387;42.690;23.328;2022-09-30T04:57:42;259.20;;;37.13;;
29984;SDS011;17387;42.690;23.328;2022-09-30T05:00:08;216.32;;;39.05;;
29984;SDS011;17387;42.690;23.328;2022-09-30T05:02:34;114.60;;;37.35;;
29984;SDS011;17387;42.690;23.328;2022-09-30T05:05:00;140.98;;;39.08;;
29984;SDS011;17387;42.690;23.328;2022-09-30T05:07:27;169.98;;;38.08;;
29984;SDS011;17387;42.690;23.328;2022-09-30T05:09:54;111.15;;;39.95;;
29984;SDS011;17387;42.690;23.328;2022-09-30T05:12:19;90.93;;;36.55;;
29984;SDS011;17387;42.690;23.328;2022-09-30T05:14:44;165.00;;;37.47;;
29984;SDS011;17387;42.690;23.328;2022-09-30T05:17:10;105.55;;;35.35;;
29984;SDS011;17387;42.690;23.328;2022-09-30T05:19:35;350.83;;;32.63;;
29984;SDS011;17387;42.690;23.328;2022-09-30T05:22:01;302.65;;;31.50;;
29984;SDS011;17387;42.690;23.328;2022-09-30T05:24:27;118.53;;;34.83;;
29984;SDS011;17387;42.690;23.328;2022-09-30T05:26:54;99.80;;;35.58;;
29984;SDS011;17387;42.690;23.328;2022-09-30T05:29:19;85.10;;;31.73;;
29984;SDS011;17387;42.690;23.328;2022-09-30T05:31:44;68.45;;;31.20;;
29984;SDS011;17387;42.690;23.328;2022-09-30T05:34:10;86.88;;;28.95;;
29984;SDS011;17387;42.690;23.328;2022-09-30T05:36:35;73.88;;;29.83;;
29984;SDS011;17387;42.690;23.328;2022-09-30T05:39:01;138.15;;;28.90;;
29984;SDS011;17387;42.690;23.328;2022-09-30T05:41:26;70.90;;;29.58;;
29984;SDS011;17387;42.690;23.328;2022-09-30T05:43:52;72.57;;;29.85;;
29984;SDS011;17387;42.690;23.328;2022-09-30T05:46:17;62.75;;;30.10;;
29984;SDS011;17387;42.690;23.328;2022-09-30T05:48:44;60.58;;;27.33;;
29984;SDS011;17387;42.690;23.328;2022-09-30T05:51:10;60.10;;;27.38;;
29984;SDS011;17387;42.690;23.328;2022-09-30T05:53:37;163.82;;;28.98;;
29984;SDS011;17387;42.690;23.328;2022-09-30T05:56:03;65.50;;;29.80;;
29984;SDS011;17387;42.690;23.328;2022-09-30T05:58:31;67.65;;;28.67;;
29984;SDS011;17387;42.690;23.328;2022-09-30T06:01:01;62.97;;;27.52;;
29984;SDS011;17387;42.690;23.328;2022-09-30T06:03:30;48.70;;;27.30;;
29984;SDS011;17387;42.690;23.328;2022-09-30T06:05:56;54.72;;;27.05;;
29984;SDS011;17387;42.690;23.328;2022-09-30T06:08:22;60.70;;;26.42;;
29984;SDS011;17387;42.690;23.328;2022-09-30T06:10:48;52.90;;;28.27;;
29984;SDS011;17387;42.690;23.328;2022-09-30T06:13:13;57.58;;;29.27;;
29984;SDS011;17387;42.690;23.328;2022-09-30T06:15:38;64.45;;;31.38;;
29984;SDS011;17387;42.690;23.328;2022-09-30T06:18:05;53.67;;;29.70;;
29984;SDS011;17387;42.690;23.328;2022-09-30T06:20:32;59.97;;;32.45;;
29984;SDS011;17387;42.690;23.328;2022-09-30T06:22:58;61.03;;;32.78;;
29984;SDS011;17387;42.690;23.328;2022-09-30T06:25:24;57.80;;;30.80;;
29984;SDS011;17387;42.690;23.328;2022-09-30T06:27:50;63.50;;;29.50;;
29984;SDS011;17387;42.690;23.328;2022-09-30T06:30:15;54.95;;;31.67;;
29984;SDS011;17387;42.690;23.328;2022-09-30T06:32:41;63.80;;;32.30;;
29984;SDS011;17387;42.690;23.328;2022-09-30T06:35:07;63.10;;;33.80;;
29984;SDS011;17387;42.690;23.328;2022-09-30T06:37:32;63.03;;;34.40;;
29984;SDS011;17387;42.690;23.328;2022-09-30T06:40:00;68.15;;;34.70;;
29984;SDS011;17387;42.690;23.328;2022-09-30T06:42:26;63.10;;;34.08;;
29984;SDS011;17387;42.690;23.328;2022-09-30T06:44:51;61.90;;;33.35;;
29984;SDS011;17387;42.690;23.328;2022-09-30T06:47:16;67.28;;;33.47;;
29984;SDS011;17387;42.690;23.328;2022-09-30T06:49:43;65.18;;;34.67;;
29984;SDS011;17387;42.690;23.328;2022-09-30T06:52:08;73.70;;;34.70;;
29984;SDS011;17387;42.690;23.328;2022-09-30T06:54:37;67.03;;;35.20;;
29984;SDS011;17387;42.690;23.328;2022-09-30T06:57:03;67.30;;;34.92;;
29984;SDS011;17387;42.690;23.328;2022-09-30T06:59:28;73.72;;;38.28;;
29984;SDS011;17387;42.690;23.328;2022-09-30T07:01:54;66.90;;;37.10;;
29984;SDS011;17387;42.690;23.328;2022-09-30T07:04:19;64.05;;;35.15;;
29984;SDS011;17387;42.690;23.328;2022-09-30T07:06:45;53.53;;;32.78;;
29984;SDS011;17387;42.690;23.328;2022-09-30T07:09:11;57.80;;;34.08;;
29984;SDS011;17387;42.690;23.328;2022-09-30T07:11:36;58.40;;;33.25;;
29984;SDS011;17387;42.690;23.328;2022-09-30T07:14:03;58.60;;;33.38;;
29984;SDS011;17387;42.690;23.328;2022-09-30T07:16:29;57.42;;;32.67;;
29984;SDS011;17387;42.690;23.328;2022-09-30T07:19:01;50.92;;;31.10;;
29984;SDS011;17387;42.690;23.328;2022-09-30T07:21:28;53.90;;;32.47;;
29984;SDS011;17387;42.690;23.328;2022-09-30T07:23:55;68.18;;;37.42;;
29984;SDS011;17387;42.690;23.328;2022-09-30T07:26:23;70.13;;;40.75;;
29984;SDS011;17387;42.690;23.328;2022-09-30T07:28:49;65.57;;;39.67;;
29984;SDS011;17387;42.690;23.328;2022-09-30T07:31:16;57.72;;;35.85;;
29984;SDS011;17387;42.690;23.328;2022-09-30T07:33:45;61.45;;;33.83;;
29984;SDS011;17387;42.690;23.328;2022-09-30T07:36:12;58.10;;;34.45;;
29984;SDS011;17387;42.690;23.328;2022-09-30T07:38:42;54.35;;;34.72;;
29984;SDS011;17387;42.690;23.328;2022-09-30T07:41:10;56.83;;;36.22;;
29984;SDS011;17387;42.690;23.328;2022-09-30T07:43:37;58.38;;;34.97;;
29984;SDS011;17387;42.690;23.328;2022-09-30T07:46:05;53.55;;;35.15;;
29984;SDS011;17387;42.690;23.328;2022-09-30T07:48:32;55.25;;;35.08;;
29984;SDS011;17387;42.690;23.328;2022-09-30T07:53:28;52.00;;;31.90;;
29984;SDS011;17387;42.690;23.328;2022-09-30T07:55:53;49.30;;;31.65;;
29984;SDS011;17387;42.690;23.328;2022-09-30T07:58:19;46.50;;;30.92;;
29984;SDS011;17387;42.690;23.328;2022-09-30T08:00:47;59.53;;;33.58;;
29984;SDS011;17387;42.690;23.328;2022-09-30T08:03:15;51.55;;;34.67;;
29984;SDS011;17387;42.690;23.328;2022-09-30T08:05:41;42.60;;;26.60;;
29984;SDS011;17387;42.690;23.328;2022-09-30T08:08:13;40.50;;;28.73;;
29984;SDS011;17387;42.690;23.328;2022-09-30T08:10:40;54.40;;;32.03;;
29984;SDS011;17387;42.690;23.328;2022-09-30T08:13:06;43.13;;;28.10;;
29984;SDS011;17387;42.690;23.328;2022-09-30T08:15:32;47.88;;;29.88;;
29984;SDS011;17387;42.690;23.328;2022-09-30T08:17:57;44.67;;;24.83;;
29984;SDS011;17387;42.690;23.328;2022-09-30T08:20:22;32.45;;;22.67;;
29984;SDS011;17387;42.690;23.328;2022-09-30T08:22:57;30.73;;;20.10;;
29984;SDS011;17387;42.690;23.328;2022-09-30T08:25:22;36.70;;;21.55;;
29984;SDS011;17387;42.690;23.328;2022-09-30T08:27:49;36.55;;;21.65;;
29984;SDS011;17387;42.690;23.328;2022-09-30T08:30:15;38.40;;;21.67;;
29984;SDS011;17387;42.690;23.328;2022-09-30T08:32:41;38.08;;;22.98;;
29984;SDS011;17387;42.690;23.328;2022-09-30T08:35:06;37.08;;;23.05;;
29984;SDS011;17387;42.690;23.328;2022-09-30T08:37:32;33.65;;;20.17;;
29984;SDS011;17387;42.690;23.328;2022-09-30T08:39:57;38.95;;;23.75;;
29984;SDS011;17387;42.690;23.328;2022-09-30T08:48:17;35.65;;;23.33;;
29984;SDS011;17387;42.690;23.328;2022-09-30T08:53:39;40.42;;;24.73;;
29984;SDS011;17387;42.690;23.328;2022-09-30T08:56:07;36.97;;;24.45;;
29984;SDS011;17387;42.690;23.328;2022-09-30T08:58:41;30.40;;;21.60;;
29984;SDS011;17387;42.690;23.328;2022-09-30T09:01:14;32.70;;;18.80;;
29984;SDS011;17387;42.690;23.328;2022-09-30T09:03:43;32.35;;;18.58;;
29984;SDS011;17387;42.690;23.328;2022-09-30T09:11:21;24.30;;;14.20;;
29984;SDS011;17387;42.690;23.328;2022-09-30T09:14:06;16.80;;;9.80;;
29984;SDS011;17387;42.690;23.328;2022-09-30T09:22:33;17.48;;;12.23;;
29984;SDS011;17387;42.690;23.328;2022-09-30T09:25:00;18.55;;;11.32;;
29984;SDS011;17387;42.690;23.328;2022-09-30T09:30:10;21.20;;;12.15;;
29984;SDS011;17387;42.690;23.328;2022-09-30T09:32:40;19.60;;;12.35;;
29984;SDS011;17387;42.690;23.328;2022-09-30T09:35:16;20.05;;;13.57;;
29984;SDS011;17387;42.690;23.328;2022-09-30T09:43:27;20.38;;;14.27;;
29984;SDS011;17387;42.690;23.328;2022-09-30T09:54:13;21.08;;;10.57;;
29984;SDS011;17387;42.690;23.328;2022-09-30T09:56:43;23.30;;;13.43;;
29984;SDS011;17387;42.690;23.328;2022-09-30T09:59:12;15.25;;;9.38;;
29984;SDS011;17387;42.690;23.328;2022-09-30T10:01:40;11.43;;;8.37;;
29984;SDS011;17387;42.690;23.328;2022-09-30T10:06:57;12.10;;;7.63;;
29984;SDS011;17387;42.690;23.328;2022-09-30T10:14:30;10.27;;;7.18;;
29984;SDS011;17387;42.690;23.328;2022-09-30T10:17:16;11.50;;;8.18;;
29984;SDS011;17387;42.690;23.328;2022-09-30T10:19:46;9.05;;;5.53;;
29984;SDS011;17387;42.690;23.328;2022-09-30T10:24:42;9.90;;;5.85;;
29984;SDS011;17387;42.690;23.328;2022-09-30T10:29:56;8.85;;;5.32;;
29984;SDS011;17387;42.690;23.328;2022-09-30T10:32:22;11.43;;;6.30;;
29984;SDS011;17387;42.690;23.328;2022-09-30T10:35:03;10.82;;;5.60;;
29984;SDS011;17387;42.690;23.328;2022-09-30T10:37:31;15.40;;;11.02;;
29984;SDS011;17387;42.690;23.328;2022-09-30T10:39:57;13.98;;;10.82;;
29984;SDS011;17387;42.690;23.328;2022-09-30T10:42:29;13.45;;;7.53;;
29984;SDS011;17387;42.690;23.328;2022-09-30T10:48:01;7.18;;;4.20;;
29984;SDS011;17387;42.690;23.328;2022-09-30T10:50:31;15.40;;;5.55;;
29984;SDS011;17387;42.690;23.328;2022-09-30T10:53:14;12.65;;;5.40;;
29984;SDS011;17387;42.690;23.328;2022-09-30T10:55:45;7.50;;;3.63;;
29984;SDS011;17387;42.690;23.328;2022-09-30T11:06:33;10.82;;;6.40;;
29984;SDS011;17387;42.690;23.328;2022-09-30T11:09:08;8.10;;;3.67;;
29984;SDS011;17387;42.690;23.328;2022-09-30T11:11:42;7.82;;;4.00;;
29984;SDS011;17387;42.690;23.328;2022-09-30T11:14:32;6.88;;;3.45;;
29984;SDS011;17387;42.690;23.328;2022-09-30T11:17:05;14.43;;;6.50;;
29984;SDS011;17387;42.690;23.328;2022-09-30T11:20:10;9.13;;;6.43;;
29984;SDS011;17387;42.690;23.328;2022-09-30T11:45:20;7.78;;;2.70;;
29984;SDS011;17387;42.690;23.328;2022-09-30T11:48:09;5.60;;;2.75;;
29984;SDS011;17387;42.690;23.328;2022-09-30T11:56:19;8.00;;;2.42;;
29984;SDS011;17387;42.690;23.328;2022-09-30T11:59:09;3.97;;;2.40;;
29984;SDS011;17387;42.690;23.328;2022-09-30T12:01:46;5.90;;;2.63;;
29984;SDS011;17387;42.690;23.328;2022-09-30T12:06:43;3.42;;;1.65;;
29984;SDS011;17387;42.690;23.328;2022-09-30T12:09:19;3.13;;;2.08;;
29984;SDS011;17387;42.690;23.328;2022-09-30T12:19:56;7.45;;;3.05;;
29984;SDS011;17387;42.690;23.328;2022-09-30T12:22:28;5.57;;;2.78;;
29984;SDS011;17387;42.690;23.328;2022-09-30T12:24:59;3.63;;;2.78;;
29984;SDS011;17387;42.690;23.328;2022-09-30T12:27:41;7.63;;;3.22;;
29984;SDS011;17387;42.690;23.328;2022-09-30T12:30:15;7.18;;;2.80;;
29984;SDS011;17387;42.690;23.328;2022-09-30T12:33:07;5.03;;;2.30;;
29984;SDS011;17387;42.690;23.328;2022-09-30T12:38:59;3.60;;;2.40;;
29984;SDS011;17387;42.690;23.328;2022-09-30T12:44:56;3.13;;;1.73;;
29984;SDS011;17387;42.690;23.328;2022-09-30T12:50:10;3.25;;;2.05;;
29984;SDS011;17387;42.690;23.328;2022-09-30T12:52:38;3.13;;;2.00;;
29984;SDS011;17387;42.690;23.328;2022-09-30T12:55:05;6.53;;;2.20;;
29984;SDS011;17387;42.690;23.328;2022-09-30T12:57:38;4.30;;;2.42;;
29984;SDS011;17387;42.690;23.328;2022-09-30T13:00:17;13.85;;;5.88;;
29984;SDS011;17387;42.690;23.328;2022-09-30T13:02:48;5.32;;;2.38;;
29984;SDS011;17387;42.690;23.328;2022-09-30T13:10:46;4.93;;;2.40;;
29984;SDS011;17387;42.690;23.328;2022-09-30T13:13:23;5.97;;;1.85;;
29984;SDS011;17387;42.690;23.328;2022-09-30T13:15:52;5.85;;;1.92;;
29984;SDS011;17387;42.690;23.328;2022-09-30T13:23:39;4.38;;;2.13;;
29984;SDS011;17387;42.690;23.328;2022-09-30T13:31:24;3.47;;;1.77;;
29984;SDS011;17387;42.690;23.328;2022-09-30T13:36:25;5.15;;;2.22;;
29984;SDS011;17387;42.690;23.328;2022-09-30T13:47:21;3.17;;;2.00;;
29984;SDS011;17387;42.690;23.328;2022-09-30T13:52:37;4.20;;;1.83;;
29984;SDS011;17387;42.690;23.328;2022-09-30T13:55:27;6.82;;;2.13;;
29984;SDS011;17387;42.690;23.328;2022-09-30T13:58:20;3.08;;;1.95;;
29984;SDS011;17387;42.690;23.328;2022-09-30T14:22:40;5.22;;;1.50;;
29984;SDS011;17387;42.690;23.328;2022-09-30T14:25:12;5.55;;;3.35;;
29984;SDS011;17387;42.690;23.328;2022-09-30T14:30:25;5.20;;;1.92;;
29984;SDS011;17387;42.690;23.328;2022-09-30T14:35:20;5.95;;;3.50;;
29984;SDS011;17387;42.690;23.328;2022-09-30T14:37:58;3.03;;;1.88;;
29984;SDS011;17387;42.690;23.328;2022-09-30T14:40:28;4.35;;;2.25;;
29984;SDS011;17387;42.690;23.328;2022-09-30T14:43:03;7.20;;;2.60;;
29984;SDS011;17387;42.690;23.328;2022-09-30T14:45:32;4.75;;;2.58;;
29984;SDS011;17387;42.690;23.328;2022-09-30T14:48:01;4.07;;;2.40;;
29984;SDS011;17387;42.690;23.328;2022-09-30T14:53:41;4.70;;;2.05;;
29984;SDS011;17387;42.690;23.328;2022-09-30T14:56:27;11.40;;;6.68;;
29984;SDS011;17387;42.690;23.328;2022-09-30T14:58:54;9.02;;;3.08;;
29984;SDS011;17387;42.690;23.328;2022-09-30T15:01:33;5.43;;;2.78;;
29984;SDS011;17387;42.690;23.328;2022-09-30T15:04:01;7.22;;;2.40;;
29984;SDS011;17387;42.690;23.328;2022-09-30T15:06:32;6.43;;;3.25;;
29984;SDS011;17387;42.690;23.328;2022-09-30T15:09:05;3.58;;;1.80;;
29984;SDS011;17387;42.690;23.328;2022-09-30T15:11:32;5.60;;;3.47;;
29984;SDS011;17387;42.690;23.328;2022-09-30T15:14:02;3.42;;;2.03;;
29984;SDS011;17387;42.690;23.328;2022-09-30T15:16:31;12.50;;;7.28;;
29984;SDS011;17387;42.690;23.328;2022-09-30T15:18:58;4.55;;;2.25;;
29984;SDS011;17387;42.690;23.328;2022-09-30T15:21:24;9.32;;;3.30;;
29984;SDS011;17387;42.690;23.328;2022-09-30T15:23:52;11.27;;;7.15;;
29984;SDS011;17387;42.690;23.328;2022-09-30T15:26:20;3.97;;;2.60;;
29984;SDS011;17387;42.690;23.328;2022-09-30T15:28:47;4.57;;;2.60;;
29984;SDS011;17387;42.690;23.328;2022-09-30T15:31:17;6.15;;;2.50;;
29984;SDS011;17387;42.690;23.328;2022-09-30T15:36:39;12.68;;;6.72;;
29984;SDS011;17387;42.690;23.328;2022-09-30T15:39:11;5.95;;;3.22;;
29984;SDS011;17387;42.690;23.328;2022-09-30T15:41:45;4.00;;;2.80;;
29984;SDS011;17387;42.690;23.328;2022-09-30T15:47:04;4.75;;;3.30;;
29984;SDS011;17387;42.690;23.328;2022-09-30T15:49:53;8.07;;;4.28;;
29984;SDS011;17387;42.690;23.328;2022-09-30T15:52:38;6.47;;;3.22;;
29984;SDS011;17387;42.690;23.328;2022-09-30T16:06:19;20.25;;;9.65;;
29984;SDS011;17387;42.690;23.328;2022-09-30T16:08:51;13.25;;;6.05;;
29984;SDS011;17387;42.690;23.328;2022-09-30T16:11:33;12.65;;;5.55;;
29984;SDS011;17387;42.690;23.328;2022-09-30T16:14:02;11.18;;;6.40;;
29984;SDS011;17387;42.690;23.328;2022-09-30T16:16:31;12.77;;;4.60;;
29984;SDS011;17387;42.690;23.328;2022-09-30T16:18:58;17.92;;;7.80;;
29984;SDS011;17387;42.690;23.328;2022-09-30T16:26:46;8.60;;;4.53;;
29984;SDS011;17387;42.690;23.328;2022-09-30T16:29:13;11.15;;;4.50;;
29984;SDS011;17387;42.690;23.328;2022-09-30T16:31:39;10.90;;;3.90;;
29984;SDS011;17387;42.690;23.328;2022-09-30T16:34:05;24.05;;;7.50;;
29984;SDS011;17387;42.690;23.328;2022-09-30T16:36:32;14.52;;;6.30;;
29984;SDS011;17387;42.690;23.328;2022-09-30T16:38:57;18.35;;;10.95;;
29984;SDS011;17387;42.690;23.328;2022-09-30T16:41:23;20.70;;;10.38;;
29984;SDS011;17387;42.690;23.328;2022-09-30T16:43:49;34.88;;;17.42;;
29984;SDS011;17387;42.690;23.328;2022-09-30T16:46:15;20.30;;;9.20;;
29984;SDS011;17387;42.690;23.328;2022-09-30T16:48:40;19.40;;;9.38;;
29984;SDS011;17387;42.690;23.328;2022-09-30T16:53:37;15.93;;;5.47;;
29984;SDS011;17387;42.690;23.328;2022-09-30T16:56:02;13.23;;;5.45;;
29984;SDS011;17387;42.690;23.328;2022-09-30T16:58:28;28.65;;;13.15;;
29984;SDS011;17387;42.690;23.328;2022-09-30T17:00:55;23.63;;;12.90;;
29984;SDS011;17387;42.690;23.328;2022-09-30T17:03:21;14.82;;;7.68;;
29984;SDS011;17387;42.690;23.328;2022-09-30T17:05:47;21.75;;;8.40;;
29984;SDS011;17387;42.690;23.328;2022-09-30T17:08:17;25.05;;;9.93;;
29984;SDS011;17387;42.690;23.328;2022-09-30T17:10:44;30.17;;;13.27;;
29984;SDS011;17387;42.690;23.328;2022-09-30T17:13:13;20.35;;;11.13;;
29984;SDS011;17387;42.690;23.328;2022-09-30T17:15:40;26.98;;;13.63;;
29984;SDS011;17387;42.690;23.328;2022-09-30T17:18:07;18.73;;;9.63;;
29984;SDS011;17387;42.690;23.328;2022-09-30T17:20:33;24.58;;;9.85;;
29984;SDS011;17387;42.690;23.328;2022-09-30T17:23:06;32.83;;;16.05;;
29984;SDS011;17387;42.690;23.328;2022-09-30T17:25:32;44.63;;;20.50;;
29984;SDS011;17387;42.690;23.328;2022-09-30T17:27:57;47.42;;;21.88;;
29984;SDS011;17387;42.690;23.328;2022-09-30T17:30:23;35.25;;;18.52;;
29984;SDS011;17387;42.690;23.328;2022-09-30T17:32:48;32.67;;;13.40;;
29984;SDS011;17387;42.690;23.328;2022-09-30T17:35:14;22.77;;;11.48;;
29984;SDS011;17387;42.690;23.328;2022-09-30T17:37:39;29.92;;;15.05;;
29984;SDS011;17387;42.690;23.328;2022-09-30T17:40:05;20.00;;;9.75;;
29984;SDS011;17387;42.690;23.328;2022-09-30T17:42:50;15.32;;;7.63;;
29984;SDS011;17387;42.690;23.328;2022-09-30T17:45:43;14.50;;;7.97;;
29984;SDS011;17387;42.690;23.328;2022-09-30T17:48:10;13.15;;;6.80;;
29984;SDS011;17387;42.690;23.328;2022-09-30T17:50:40;17.25;;;7.22;;
29984;SDS011;17387;42.690;23.328;2022-09-30T17:55:36;14.75;;;8.10;;
29984;SDS011;17387;42.690;23.328;2022-09-30T17:58:06;18.25;;;7.55;;
29984;SDS011;17387;42.690;23.328;2022-09-30T18:00:33;34.08;;;19.98;;
29984;SDS011;17387;42.690;23.328;2022-09-30T18:02:59;19.15;;;9.05;;
29984;SDS011;17387;42.690;23.328;2022-09-30T18:05:24;27.67;;;13.25;;
29984;SDS011;17387;42.690;23.328;2022-09-30T18:07:51;16.38;;;8.35;;
29984;SDS011;17387;42.690;23.328;2022-09-30T18:10:16;20.35;;;8.40;;
29984;SDS011;17387;42.690;23.328;2022-09-30T18:12:42;20.30;;;10.90;;
29984;SDS011;17387;42.690;23.328;2022-09-30T18:15:08;33.20;;;15.65;;
29984;SDS011;17387;42.690;23.328;2022-09-30T18:17:34;23.65;;;14.30;;
29984;SDS011;17387;42.690;23.328;2022-09-30T18:19:59;38.95;;;19.55;;
29984;SDS011;17387;42.690;23.328;2022-09-30T18:22:25;51.40;;;28.60;;
29984;SDS011;17387;42.690;23.328;2022-09-30T18:24:50;25.80;;;12.48;;
29984;SDS011;17387;42.690;23.328;2022-09-30T18:27:34;41.33;;;24.08;;
29984;SDS011;17387;42.690;23.328;2022-09-30T18:30:00;48.75;;;24.30;;
29984;SDS011;17387;42.690;23.328;2022-09-30T18:32:26;30.10;;;15.40;;
29984;SDS011;17387;42.690;23.328;2022-09-30T18:34:53;32.45;;;17.98;;
29984;SDS011;17387;42.690;23.328;2022-09-30T18:37:20;46.45;;;23.75;;
29984;SDS011;17387;42.690;23.328;2022-09-30T18:39:46;26.42;;;12.40;;
29984;SDS011;17387;42.690;23.328;2022-09-30T18:42:11;21.83;;;12.57;;
29984;SDS011;17387;42.690;23.328;2022-09-30T18:44:37;27.73;;;14.43;;
29984;SDS011;17387;42.690;23.328;2022-09-30T18:47:04;41.03;;;22.67;;
29984;SDS011;17387;42.690;23.328;2022-09-30T18:49:30;36.53;;;18.33;;
29984;SDS011;17387;42.690;23.328;2022-09-30T18:51:55;36.13;;;15.85;;
29984;SDS011;17387;42.690;23.328;2022-09-30T18:54:21;36.47;;;18.27;;
29984;SDS011;17387;42.690;23.328;2022-09-30T18:56:48;59.70;;;35.35;;
29984;SDS011;17387;42.690;23.328;2022-09-30T18:59:14;29.73;;;17.15;;
29984;SDS011;17387;42.690;23.328;2022-09-30T19:01:40;23.85;;;11.15;;
29984;SDS011;17387;42.690;23.328;2022-09-30T19:04:10;24.25;;;12.07;;